sensor_id;sensor_type;location;lat;lon;timestamp;P1;durP1;ratioP1;P2;durP2;ratioP2
72427;SDS011;60419;48.880;18.036;2022-10-16T00:01:19;12.63;;;7.43;;
72427;SDS011;60419;48.880;18.036;2022-10-16T00:04:06;14.05;;;7.25;;
72427;SDS011;60419;48.880;18.036;2022-10-16T00:06:52;10.65;;;7.03;;
72427;SDS011;60419;48.880;18.036;2022-10-16T00:09:37;13.77;;;7.40;;
72427;SDS011;60419;48.880;18.036;2022-10-16T00:12:23;12.85;;;7.45;;
72427;SDS011;60419;48.880;18.036;2022-10-16T00:15:08;12.75;;;7.43;;
72427;SDS011;60419;48.880;18.036;2022-10-16T00:17:54;11.43;;;7.10;;
72427;SDS011;60419;48.880;18.036;2022-10-16T00:20:40;11.65;;;7.22;;
72427;SDS011;60419;48.880;18.036;2022-10-16T00:23:26;10.82;;;7.50;;
72427;SDS011;60419;48.880;18.036;2022-10-16T00:26:12;14.15;;;7.47;;
72427;SDS011;60419;48.880;18.036;2022-10-16T00:28:59;12.23;;;7.50;;
72427;SDS011;60419;48.880;18.036;2022-10-16T00:31:45;14.00;;;7.45;;
72427;SDS011;60419;48.880;18.036;2022-10-16T00:34:30;12.60;;;7.75;;
72427;SDS011;60419;48.880;18.036;2022-10-16T00:37:15;10.90;;;7.30;;
72427;SDS011;60419;48.880;18.036;2022-10-16T00:40:01;13.75;;;7.18;;
72427;SDS011;60419;48.880;18.036;2022-10-16T00:42:46;12.32;;;7.70;;
72427;SDS011;60419;48.880;18.036;2022-10-16T00:45:31;11.40;;;7.47;;
72427;SDS011;60419;48.880;18.036;2022-10-16T00:48:17;10.70;;;7.25;;
72427;SDS011;60419;48.880;18.036;2022-10-16T00:51:02;13.38;;;7.07;;
72427;SDS011;60419;48.880;18.036;2022-10-16T00:53:50;11.07;;;6.97;;
72427;SDS011;60419;48.880;18.036;2022-10-16T00:56:36;11.95;;;6.97;;
72427;SDS011;60419;48.880;18.036;2022-10-16T00:59:29;12.70;;;7.03;;
72427;SDS011;60419;48.880;18.036;2022-10-16T01:02:17;12.30;;;7.07;;
72427;SDS011;60419;48.880;18.036;2022-10-16T01:05:02;10.27;;;6.88;;
72427;SDS011;60419;48.880;18.036;2022-10-16T01:07:54;10.88;;;7.47;;
72427;SDS011;60419;48.880;18.036;2022-10-16T01:11:00;13.60;;;7.45;;
72427;SDS011;60419;48.880;18.036;2022-10-16T01:13:55;13.10;;;6.90;;
72427;SDS011;60419;48.880;18.036;2022-10-16T01:16:49;10.73;;;7.45;;
72427;SDS011;60419;48.880;18.036;2022-10-16T01:28:55;11.88;;;7.30;;
72427;SDS011;60419;48.880;18.036;2022-10-16T01:32:02;11.38;;;7.50;;
72427;SDS011;60419;48.880;18.036;2022-10-16T01:34:58;13.25;;;7.05;;
72427;SDS011;60419;48.880;18.036;2022-10-16T01:38:03;11.52;;;7.00;;
72427;SDS011;60419;48.880;18.036;2022-10-16T01:40:55;12.63;;;6.97;;
72427;SDS011;60419;48.880;18.036;2022-10-16T01:43:47;13.45;;;7.35;;
72427;SDS011;60419;48.880;18.036;2022-10-16T01:46:39;13.27;;;7.72;;
72427;SDS011;60419;48.880;18.036;2022-10-16T01:49:29;11.90;;;7.13;;
72427;SDS011;60419;48.880;18.036;2022-10-16T01:52:19;19.97;;;7.63;;
72427;SDS011;60419;48.880;18.036;2022-10-16T01:55:08;12.85;;;7.13;;
72427;SDS011;60419;48.880;18.036;2022-10-16T01:57:57;11.52;;;7.30;;
72427;SDS011;60419;48.880;18.036;2022-10-16T02:00:46;10.40;;;7.15;;
72427;SDS011;60419;48.880;18.036;2022-10-16T02:03:32;13.57;;;8.05;;
72427;SDS011;60419;48.880;18.036;2022-10-16T02:06:21;13.38;;;7.28;;
72427;SDS011;60419;48.880;18.036;2022-10-16T02:09:07;12.55;;;8.05;;
72427;SDS011;60419;48.880;18.036;2022-10-16T02:11:53;13.23;;;7.70;;
72427;SDS011;60419;48.880;18.036;2022-10-16T02:14:42;14.25;;;7.55;;
72427;SDS011;60419;48.880;18.036;2022-10-16T02:17:27;11.43;;;7.28;;
72427;SDS011;60419;48.880;18.036;2022-10-16T02:20:13;14.05;;;9.10;;
72427;SDS011;60419;48.880;18.036;2022-10-16T02:22:58;17.80;;;11.98;;
72427;SDS011;60419;48.880;18.036;2022-10-16T02:25:46;21.17;;;14.20;;
72427;SDS011;60419;48.880;18.036;2022-10-16T02:28:40;17.55;;;12.15;;
72427;SDS011;60419;48.880;18.036;2022-10-16T02:31:31;24.27;;;12.95;;
72427;SDS011;60419;48.880;18.036;2022-10-16T02:34:19;19.60;;;12.55;;
72427;SDS011;60419;48.880;18.036;2022-10-16T02:37:07;18.23;;;12.43;;
72427;SDS011;60419;48.880;18.036;2022-10-16T02:39:54;20.75;;;12.63;;
72427;SDS011;60419;48.880;18.036;2022-10-16T02:42:40;18.20;;;11.80;;
72427;SDS011;60419;48.880;18.036;2022-10-16T02:45:26;18.60;;;11.57;;
72427;SDS011;60419;48.880;18.036;2022-10-16T02:48:11;16.05;;;11.13;;
72427;SDS011;60419;48.880;18.036;2022-10-16T02:50:57;19.92;;;12.10;;
72427;SDS011;60419;48.880;18.036;2022-10-16T02:53:42;16.75;;;11.55;;
72427;SDS011;60419;48.880;18.036;2022-10-16T02:56:27;19.50;;;12.48;;
72427;SDS011;60419;48.880;18.036;2022-10-16T02:59:14;19.88;;;11.98;;
72427;SDS011;60419;48.880;18.036;2022-10-16T03:02:00;19.48;;;11.68;;
72427;SDS011;60419;48.880;18.036;2022-10-16T03:04:46;19.15;;;10.93;;
72427;SDS011;60419;48.880;18.036;2022-10-16T03:07:31;16.60;;;11.63;;
72427;SDS011;60419;48.880;18.036;2022-10-16T03:10:17;18.67;;;11.35;;
72427;SDS011;60419;48.880;18.036;2022-10-16T03:13:02;20.63;;;11.75;;
72427;SDS011;60419;48.880;18.036;2022-10-16T03:15:48;18.08;;;10.82;;
72427;SDS011;60419;48.880;18.036;2022-10-16T03:18:33;19.77;;;11.75;;
72427;SDS011;60419;48.880;18.036;2022-10-16T03:21:19;20.75;;;11.57;;
72427;SDS011;60419;48.880;18.036;2022-10-16T03:24:04;16.83;;;11.05;;
72427;SDS011;60419;48.880;18.036;2022-10-16T03:26:50;16.52;;;10.73;;
72427;SDS011;60419;48.880;18.036;2022-10-16T03:29:35;18.52;;;10.23;;
72427;SDS011;60419;48.880;18.036;2022-10-16T03:32:21;16.67;;;10.55;;
72427;SDS011;60419;48.880;18.036;2022-10-16T03:35:06;14.07;;;9.70;;
72427;SDS011;60419;48.880;18.036;2022-10-16T03:37:52;20.00;;;9.43;;
72427;SDS011;60419;48.880;18.036;2022-10-16T03:40:37;17.73;;;10.20;;
72427;SDS011;60419;48.880;18.036;2022-10-16T03:43:23;18.40;;;9.82;;
72427;SDS011;60419;48.880;18.036;2022-10-16T03:46:08;17.50;;;9.80;;
72427;SDS011;60419;48.880;18.036;2022-10-16T03:48:54;14.05;;;9.27;;
72427;SDS011;60419;48.880;18.036;2022-10-16T03:51:39;12.88;;;9.30;;
72427;SDS011;60419;48.880;18.036;2022-10-16T03:54:24;18.42;;;9.75;;
72427;SDS011;60419;48.880;18.036;2022-10-16T03:57:10;13.80;;;10.13;;
72427;SDS011;60419;48.880;18.036;2022-10-16T03:59:55;16.55;;;9.73;;
72427;SDS011;60419;48.880;18.036;2022-10-16T04:02:40;19.17;;;9.38;;
72427;SDS011;60419;48.880;18.036;2022-10-16T04:05:26;13.32;;;9.10;;
72427;SDS011;60419;48.880;18.036;2022-10-16T04:08:11;13.70;;;9.45;;
72427;SDS011;60419;48.880;18.036;2022-10-16T04:10:57;15.43;;;8.88;;
72427;SDS011;60419;48.880;18.036;2022-10-16T04:13:42;13.52;;;9.15;;
72427;SDS011;60419;48.880;18.036;2022-10-16T04:16:28;19.08;;;9.38;;
72427;SDS011;60419;48.880;18.036;2022-10-16T04:19:14;13.45;;;8.48;;
72427;SDS011;60419;48.880;18.036;2022-10-16T04:21:59;15.65;;;8.90;;
72427;SDS011;60419;48.880;18.036;2022-10-16T04:24:44;15.23;;;9.02;;
72427;SDS011;60419;48.880;18.036;2022-10-16T04:27:30;13.75;;;8.80;;
72427;SDS011;60419;48.880;18.036;2022-10-16T04:30:16;12.93;;;7.80;;
72427;SDS011;60419;48.880;18.036;2022-10-16T04:33:01;16.33;;;8.38;;
72427;SDS011;60419;48.880;18.036;2022-10-16T04:35:47;13.77;;;7.70;;
72427;SDS011;60419;48.880;18.036;2022-10-16T04:38:32;17.55;;;8.38;;
72427;SDS011;60419;48.880;18.036;2022-10-16T04:41:17;13.48;;;8.20;;
72427;SDS011;60419;48.880;18.036;2022-10-16T04:44:03;13.45;;;8.35;;
72427;SDS011;60419;48.880;18.036;2022-10-16T04:46:50;15.10;;;8.35;;
72427;SDS011;60419;48.880;18.036;2022-10-16T04:49:36;13.68;;;8.75;;
72427;SDS011;60419;48.880;18.036;2022-10-16T04:52:21;15.80;;;9.50;;
72427;SDS011;60419;48.880;18.036;2022-10-16T04:55:09;15.18;;;10.02;;
72427;SDS011;60419;48.880;18.036;2022-10-16T04:57:54;14.40;;;9.13;;
72427;SDS011;60419;48.880;18.036;2022-10-16T05:00:40;15.43;;;9.85;;
72427;SDS011;60419;48.880;18.036;2022-10-16T05:03:25;16.98;;;10.45;;
72427;SDS011;60419;48.880;18.036;2022-10-16T05:06:10;15.50;;;10.45;;
72427;SDS011;60419;48.880;18.036;2022-10-16T05:08:56;15.55;;;11.20;;
72427;SDS011;60419;48.880;18.036;2022-10-16T05:11:41;16.58;;;11.23;;
72427;SDS011;60419;48.880;18.036;2022-10-16T05:14:26;16.75;;;11.35;;
72427;SDS011;60419;48.880;18.036;2022-10-16T05:17:12;16.15;;;11.15;;
72427;SDS011;60419;48.880;18.036;2022-10-16T05:19:57;29.75;;;11.77;;
72427;SDS011;60419;48.880;18.036;2022-10-16T05:22:42;18.55;;;11.73;;
72427;SDS011;60419;48.880;18.036;2022-10-16T05:25:28;17.27;;;11.60;;
72427;SDS011;60419;48.880;18.036;2022-10-16T05:28:13;19.38;;;11.93;;
72427;SDS011;60419;48.880;18.036;2022-10-16T05:30:58;18.02;;;12.15;;
72427;SDS011;60419;48.880;18.036;2022-10-16T05:33:44;16.10;;;11.18;;
72427;SDS011;60419;48.880;18.036;2022-10-16T05:36:30;16.80;;;10.98;;
72427;SDS011;60419;48.880;18.036;2022-10-16T05:39:15;17.40;;;11.23;;
72427;SDS011;60419;48.880;18.036;2022-10-16T05:42:01;16.05;;;10.85;;
72427;SDS011;60419;48.880;18.036;2022-10-16T05:44:46;16.50;;;11.48;;
72427;SDS011;60419;48.880;18.036;2022-10-16T05:47:32;17.13;;;11.05;;
72427;SDS011;60419;48.880;18.036;2022-10-16T05:50:17;19.05;;;11.25;;
72427;SDS011;60419;48.880;18.036;2022-10-16T05:53:02;14.80;;;10.85;;
72427;SDS011;60419;48.880;18.036;2022-10-16T05:55:51;16.23;;;10.95;;
72427;SDS011;60419;48.880;18.036;2022-10-16T05:58:37;17.92;;;11.00;;
72427;SDS011;60419;48.880;18.036;2022-10-16T06:01:25;16.27;;;10.43;;
72427;SDS011;60419;48.880;18.036;2022-10-16T06:04:11;17.17;;;10.27;;
72427;SDS011;60419;48.880;18.036;2022-10-16T06:06:59;14.75;;;10.05;;
72427;SDS011;60419;48.880;18.036;2022-10-16T06:09:50;15.80;;;10.73;;
72427;SDS011;60419;48.880;18.036;2022-10-16T06:12:36;17.67;;;10.50;;
72427;SDS011;60419;48.880;18.036;2022-10-16T06:15:21;15.20;;;9.65;;
72427;SDS011;60419;48.880;18.036;2022-10-16T06:18:10;16.85;;;10.98;;
72427;SDS011;60419;48.880;18.036;2022-10-16T06:20:55;14.88;;;9.40;;
72427;SDS011;60419;48.880;18.036;2022-10-16T06:23:42;15.00;;;10.90;;
72427;SDS011;60419;48.880;18.036;2022-10-16T06:26:28;13.80;;;10.07;;
72427;SDS011;60419;48.880;18.036;2022-10-16T06:29:15;15.48;;;9.43;;
72427;SDS011;60419;48.880;18.036;2022-10-16T06:32:00;13.45;;;9.40;;
72427;SDS011;60419;48.880;18.036;2022-10-16T06:34:46;14.98;;;10.05;;
72427;SDS011;60419;48.880;18.036;2022-10-16T06:37:31;14.18;;;9.32;;
72427;SDS011;60419;48.880;18.036;2022-10-16T06:40:17;15.80;;;9.57;;
72427;SDS011;60419;48.880;18.036;2022-10-16T06:43:02;13.57;;;8.50;;
72427;SDS011;60419;48.880;18.036;2022-10-16T06:45:54;16.58;;;9.82;;
72427;SDS011;60419;48.880;18.036;2022-10-16T06:48:40;15.20;;;9.60;;
72427;SDS011;60419;48.880;18.036;2022-10-16T06:51:26;19.00;;;8.70;;
72427;SDS011;60419;48.880;18.036;2022-10-16T06:54:11;11.95;;;8.30;;
72427;SDS011;60419;48.880;18.036;2022-10-16T06:56:57;15.15;;;8.95;;
72427;SDS011;60419;48.880;18.036;2022-10-16T06:59:44;14.45;;;8.85;;
72427;SDS011;60419;48.880;18.036;2022-10-16T07:02:30;14.57;;;9.23;;
72427;SDS011;60419;48.880;18.036;2022-10-16T07:05:15;16.25;;;9.10;;
72427;SDS011;60419;48.880;18.036;2022-10-16T07:08:01;15.05;;;9.68;;
72427;SDS011;60419;48.880;18.036;2022-10-16T07:10:46;13.40;;;9.07;;
72427;SDS011;60419;48.880;18.036;2022-10-16T07:13:35;17.08;;;9.30;;
72427;SDS011;60419;48.880;18.036;2022-10-16T07:16:23;17.17;;;9.32;;
72427;SDS011;60419;48.880;18.036;2022-10-16T07:19:10;15.30;;;8.55;;
72427;SDS011;60419;48.880;18.036;2022-10-16T07:21:57;11.52;;;6.55;;
72427;SDS011;60419;48.880;18.036;2022-10-16T07:24:42;14.15;;;9.10;;
72427;SDS011;60419;48.880;18.036;2022-10-16T07:27:29;16.38;;;8.98;;
72427;SDS011;60419;48.880;18.036;2022-10-16T07:30:14;14.05;;;9.55;;
72427;SDS011;60419;48.880;18.036;2022-10-16T07:33:00;15.18;;;9.75;;
72427;SDS011;60419;48.880;18.036;2022-10-16T07:35:49;16.65;;;8.60;;
72427;SDS011;60419;48.880;18.036;2022-10-16T07:38:37;14.20;;;8.52;;
72427;SDS011;60419;48.880;18.036;2022-10-16T07:41:23;14.43;;;8.60;;
72427;SDS011;60419;48.880;18.036;2022-10-16T07:44:08;18.15;;;9.00;;
72427;SDS011;60419;48.880;18.036;2022-10-16T07:46:54;13.13;;;8.60;;
72427;SDS011;60419;48.880;18.036;2022-10-16T07:49:39;13.05;;;8.82;;
72427;SDS011;60419;48.880;18.036;2022-10-16T07:52:24;15.15;;;9.07;;
72427;SDS011;60419;48.880;18.036;2022-10-16T07:55:10;16.08;;;8.85;;
72427;SDS011;60419;48.880;18.036;2022-10-16T07:57:55;16.23;;;8.38;;
72427;SDS011;60419;48.880;18.036;2022-10-16T08:00:40;13.68;;;8.50;;
72427;SDS011;60419;48.880;18.036;2022-10-16T08:03:26;15.45;;;8.70;;
72427;SDS011;60419;48.880;18.036;2022-10-16T08:06:11;13.38;;;8.40;;
72427;SDS011;60419;48.880;18.036;2022-10-16T08:08:57;13.85;;;8.70;;
72427;SDS011;60419;48.880;18.036;2022-10-16T08:11:43;13.57;;;9.70;;
72427;SDS011;60419;48.880;18.036;2022-10-16T08:14:28;14.50;;;8.90;;
72427;SDS011;60419;48.880;18.036;2022-10-16T08:17:14;13.57;;;8.98;;
72427;SDS011;60419;48.880;18.036;2022-10-16T08:20:00;14.13;;;9.00;;
72427;SDS011;60419;48.880;18.036;2022-10-16T08:22:46;14.73;;;8.57;;
72427;SDS011;60419;48.880;18.036;2022-10-16T08:25:33;14.48;;;8.40;;
72427;SDS011;60419;48.880;18.036;2022-10-16T08:28:20;16.02;;;8.95;;
72427;SDS011;60419;48.880;18.036;2022-10-16T08:33:53;13.70;;;8.90;;
72427;SDS011;60419;48.880;18.036;2022-10-16T08:36:39;17.45;;;9.20;;
72427;SDS011;60419;48.880;18.036;2022-10-16T08:39:24;13.23;;;8.75;;
72427;SDS011;60419;48.880;18.036;2022-10-16T08:48:38;13.38;;;8.45;;
72427;SDS011;60419;48.880;18.036;2022-10-16T08:51:31;15.85;;;9.10;;
72427;SDS011;60419;48.880;18.036;2022-10-16T08:54:36;16.27;;;9.68;;
72427;SDS011;60419;48.880;18.036;2022-10-16T08:57:27;14.55;;;9.02;;
72427;SDS011;60419;48.880;18.036;2022-10-16T09:00:13;16.08;;;9.20;;
72427;SDS011;60419;48.880;18.036;2022-10-16T09:03:03;13.18;;;8.88;;
72427;SDS011;60419;48.880;18.036;2022-10-16T09:09:24;14.55;;;9.90;;
72427;SDS011;60419;48.880;18.036;2022-10-16T09:12:22;19.08;;;9.48;;
72427;SDS011;60419;48.880;18.036;2022-10-16T09:15:39;14.77;;;9.20;;
72427;SDS011;60419;48.880;18.036;2022-10-16T09:18:45;13.07;;;8.85;;
72427;SDS011;60419;48.880;18.036;2022-10-16T09:21:41;13.82;;;9.02;;
72427;SDS011;60419;48.880;18.036;2022-10-16T09:24:30;13.30;;;8.70;;
72427;SDS011;60419;48.880;18.036;2022-10-16T09:27:15;15.05;;;8.77;;
72427;SDS011;60419;48.880;18.036;2022-10-16T09:30:01;16.33;;;9.15;;
72427;SDS011;60419;48.880;18.036;2022-10-16T09:32:51;11.68;;;8.00;;
72427;SDS011;60419;48.880;18.036;2022-10-16T09:38:32;15.35;;;8.45;;
72427;SDS011;60419;48.880;18.036;2022-10-16T09:41:20;19.27;;;8.30;;
72427;SDS011;60419;48.880;18.036;2022-10-16T09:47:14;12.10;;;8.07;;
72427;SDS011;60419;48.880;18.036;2022-10-16T09:50:15;16.02;;;8.40;;
72427;SDS011;60419;48.880;18.036;2022-10-16T09:53:12;13.30;;;8.38;;
72427;SDS011;60419;48.880;18.036;2022-10-16T09:55:58;14.15;;;8.57;;
72427;SDS011;60419;48.880;18.036;2022-10-16T09:58:49;14.73;;;8.02;;
72427;SDS011;60419;48.880;18.036;2022-10-16T10:01:39;14.40;;;8.20;;
72427;SDS011;60419;48.880;18.036;2022-10-16T10:04:38;21.20;;;9.27;;
72427;SDS011;60419;48.880;18.036;2022-10-16T10:07:28;14.57;;;9.13;;
72427;SDS011;60419;48.880;18.036;2022-10-16T10:10:21;15.85;;;9.07;;
72427;SDS011;60419;48.880;18.036;2022-10-16T10:13:21;18.33;;;9.52;;
72427;SDS011;60419;48.880;18.036;2022-10-16T10:16:09;15.55;;;9.93;;
72427;SDS011;60419;48.880;18.036;2022-10-16T10:18:58;14.50;;;9.25;;
72427;SDS011;60419;48.880;18.036;2022-10-16T10:21:44;13.52;;;8.55;;
72427;SDS011;60419;48.880;18.036;2022-10-16T10:24:30;12.93;;;8.68;;
72427;SDS011;60419;48.880;18.036;2022-10-16T10:27:16;16.25;;;9.07;;
72427;SDS011;60419;48.880;18.036;2022-10-16T10:38:46;15.05;;;8.45;;
72427;SDS011;60419;48.880;18.036;2022-10-16T11:02:31;15.40;;;8.38;;
72427;SDS011;60419;48.880;18.036;2022-10-16T11:05:23;13.25;;;8.45;;
72427;SDS011;60419;48.880;18.036;2022-10-16T11:11:22;12.48;;;8.02;;
72427;SDS011;60419;48.880;18.036;2022-10-16T11:14:26;11.20;;;8.65;;
72427;SDS011;60419;48.880;18.036;2022-10-16T11:17:18;16.30;;;8.75;;
72427;SDS011;60419;48.880;18.036;2022-10-16T11:23:20;13.35;;;8.05;;
72427;SDS011;60419;48.880;18.036;2022-10-16T11:26:14;14.13;;;8.77;;
72427;SDS011;60419;48.880;18.036;2022-10-16T11:29:04;16.25;;;8.75;;
72427;SDS011;60419;48.880;18.036;2022-10-16T11:32:00;14.10;;;8.88;;
72427;SDS011;60419;48.880;18.036;2022-10-16T11:35:02;13.48;;;8.73;;
72427;SDS011;60419;48.880;18.036;2022-10-16T11:37:56;14.63;;;9.23;;
72427;SDS011;60419;48.880;18.036;2022-10-16T11:40:45;16.25;;;9.30;;
72427;SDS011;60419;48.880;18.036;2022-10-16T11:43:38;12.63;;;8.65;;
72427;SDS011;60419;48.880;18.036;2022-10-16T11:46:28;15.15;;;9.82;;
72427;SDS011;60419;48.880;18.036;2022-10-16T11:49:21;13.43;;;8.45;;
72427;SDS011;60419;48.880;18.036;2022-10-16T11:58:03;14.27;;;8.75;;
72427;SDS011;60419;48.880;18.036;2022-10-16T12:04:26;15.98;;;9.07;;
72427;SDS011;60419;48.880;18.036;2022-10-16T12:07:32;12.65;;;8.65;;
72427;SDS011;60419;48.880;18.036;2022-10-16T12:10:24;16.63;;;9.38;;
72427;SDS011;60419;48.880;18.036;2022-10-16T12:19:11;14.97;;;8.93;;
72427;SDS011;60419;48.880;18.036;2022-10-16T12:22:02;15.25;;;8.98;;
72427;SDS011;60419;48.880;18.036;2022-10-16T12:24:50;14.35;;;9.40;;
72427;SDS011;60419;48.880;18.036;2022-10-16T12:27:36;13.65;;;9.70;;
72427;SDS011;60419;48.880;18.036;2022-10-16T12:30:22;16.63;;;9.20;;
72427;SDS011;60419;48.880;18.036;2022-10-16T12:33:19;14.60;;;9.43;;
72427;SDS011;60419;48.880;18.036;2022-10-16T12:36:12;16.02;;;9.98;;
72427;SDS011;60419;48.880;18.036;2022-10-16T12:39:00;15.98;;;9.32;;
72427;SDS011;60419;48.880;18.036;2022-10-16T12:42:02;14.68;;;9.48;;
72427;SDS011;60419;48.880;18.036;2022-10-16T12:44:49;16.67;;;9.93;;
72427;SDS011;60419;48.880;18.036;2022-10-16T12:47:36;13.35;;;9.73;;
72427;SDS011;60419;48.880;18.036;2022-10-16T12:53:21;14.77;;;10.30;;
72427;SDS011;60419;48.880;18.036;2022-10-16T12:56:20;28.98;;;10.48;;
72427;SDS011;60419;48.880;18.036;2022-10-16T12:59:24;13.45;;;8.88;;
72427;SDS011;60419;48.880;18.036;2022-10-16T13:02:25;16.35;;;9.32;;
72427;SDS011;60419;48.880;18.036;2022-10-16T13:08:46;18.85;;;9.90;;
72427;SDS011;60419;48.880;18.036;2022-10-16T13:15:06;17.00;;;9.68;;
72427;SDS011;60419;48.880;18.036;2022-10-16T13:30:31;16.77;;;9.67;;
72427;SDS011;60419;48.880;18.036;2022-10-16T13:33:22;13.82;;;9.40;;
72427;SDS011;60419;48.880;18.036;2022-10-16T13:36:29;16.65;;;9.27;;
72427;SDS011;60419;48.880;18.036;2022-10-16T13:39:23;15.05;;;9.13;;
72427;SDS011;60419;48.880;18.036;2022-10-16T13:42:20;14.25;;;8.90;;
72427;SDS011;60419;48.880;18.036;2022-10-16T13:45:17;14.30;;;8.68;;
72427;SDS011;60419;48.880;18.036;2022-10-16T13:48:04;12.15;;;8.70;;
72427;SDS011;60419;48.880;18.036;2022-10-16T13:54:07;12.77;;;8.65;;
72427;SDS011;60419;48.880;18.036;2022-10-16T13:56:56;12.70;;;8.57;;
72427;SDS011;60419;48.880;18.036;2022-10-16T13:59:41;16.20;;;9.10;;
72427;SDS011;60419;48.880;18.036;2022-10-16T14:02:29;12.32;;;8.43;;
72427;SDS011;60419;48.880;18.036;2022-10-16T14:05:19;13.23;;;9.02;;
72427;SDS011;60419;48.880;18.036;2022-10-16T14:08:05;13.65;;;8.60;;
72427;SDS011;60419;48.880;18.036;2022-10-16T14:10:51;12.90;;;8.93;;
72427;SDS011;60419;48.880;18.036;2022-10-16T14:13:44;13.52;;;8.93;;
72427;SDS011;60419;48.880;18.036;2022-10-16T14:16:31;15.13;;;9.13;;
72427;SDS011;60419;48.880;18.036;2022-10-16T14:22:16;15.20;;;9.15;;
72427;SDS011;60419;48.880;18.036;2022-10-16T14:30:58;11.80;;;8.45;;
72427;SDS011;60419;48.880;18.036;2022-10-16T14:33:45;14.98;;;8.52;;
72427;SDS011;60419;48.880;18.036;2022-10-16T14:36:30;12.75;;;8.73;;
72427;SDS011;60419;48.880;18.036;2022-10-16T14:39:17;11.25;;;8.60;;
72427;SDS011;60419;48.880;18.036;2022-10-16T14:42:11;11.15;;;8.48;;
72427;SDS011;60419;48.880;18.036;2022-10-16T14:45:01;13.60;;;8.77;;
72427;SDS011;60419;48.880;18.036;2022-10-16T14:47:54;13.32;;;8.60;;
72427;SDS011;60419;48.880;18.036;2022-10-16T14:50:45;12.60;;;8.82;;
72427;SDS011;60419;48.880;18.036;2022-10-16T14:53:30;12.43;;;8.40;;
72427;SDS011;60419;48.880;18.036;2022-10-16T14:56:17;12.77;;;7.90;;
72427;SDS011;60419;48.880;18.036;2022-10-16T14:59:04;13.15;;;8.65;;
72427;SDS011;60419;48.880;18.036;2022-10-16T15:01:50;13.20;;;8.60;;
72427;SDS011;60419;48.880;18.036;2022-10-16T15:04:35;12.82;;;8.75;;
72427;SDS011;60419;48.880;18.036;2022-10-16T15:07:21;13.15;;;8.45;;
72427;SDS011;60419;48.880;18.036;2022-10-16T15:10:06;14.48;;;8.95;;
72427;SDS011;60419;48.880;18.036;2022-10-16T15:12:52;12.50;;;8.55;;
72427;SDS011;60419;48.880;18.036;2022-10-16T15:15:38;11.52;;;7.93;;
72427;SDS011;60419;48.880;18.036;2022-10-16T15:18:29;14.10;;;9.23;;
72427;SDS011;60419;48.880;18.036;2022-10-16T15:21:28;10.65;;;8.02;;
72427;SDS011;60419;48.880;18.036;2022-10-16T15:24:16;12.50;;;8.23;;
72427;SDS011;60419;48.880;18.036;2022-10-16T15:27:01;10.93;;;7.80;;
72427;SDS011;60419;48.880;18.036;2022-10-16T15:29:46;11.45;;;8.35;;
72427;SDS011;60419;48.880;18.036;2022-10-16T15:32:32;12.48;;;7.95;;
72427;SDS011;60419;48.880;18.036;2022-10-16T15:35:17;13.55;;;8.65;;
72427;SDS011;60419;48.880;18.036;2022-10-16T15:38:03;13.82;;;8.13;;
72427;SDS011;60419;48.880;18.036;2022-10-16T15:40:48;14.52;;;9.45;;
72427;SDS011;60419;48.880;18.036;2022-10-16T15:43:34;14.95;;;11.10;;
72427;SDS011;60419;48.880;18.036;2022-10-16T15:46:20;12.20;;;8.15;;
72427;SDS011;60419;48.880;18.036;2022-10-16T15:49:07;12.18;;;7.90;;
72427;SDS011;60419;48.880;18.036;2022-10-16T15:51:54;14.50;;;8.57;;
72427;SDS011;60419;48.880;18.036;2022-10-16T15:54:39;13.82;;;8.88;;
72427;SDS011;60419;48.880;18.036;2022-10-16T15:57:27;15.48;;;9.15;;
72427;SDS011;60419;48.880;18.036;2022-10-16T16:00:16;14.85;;;9.30;;
72427;SDS011;60419;48.880;18.036;2022-10-16T16:03:05;15.82;;;8.75;;
72427;SDS011;60419;48.880;18.036;2022-10-16T16:05:51;13.52;;;8.90;;
72427;SDS011;60419;48.880;18.036;2022-10-16T16:08:36;13.60;;;9.38;;
72427;SDS011;60419;48.880;18.036;2022-10-16T16:11:21;15.15;;;9.80;;
72427;SDS011;60419;48.880;18.036;2022-10-16T16:14:12;15.15;;;10.05;;
72427;SDS011;60419;48.880;18.036;2022-10-16T16:16:58;18.55;;;9.32;;
72427;SDS011;60419;48.880;18.036;2022-10-16T16:19:45;18.23;;;9.75;;
72427;SDS011;60419;48.880;18.036;2022-10-16T16:22:31;18.52;;;10.02;;
72427;SDS011;60419;48.880;18.036;2022-10-16T16:25:16;17.90;;;9.40;;
72427;SDS011;60419;48.880;18.036;2022-10-16T16:28:02;14.25;;;8.98;;
72427;SDS011;60419;48.880;18.036;2022-10-16T16:30:50;15.10;;;9.52;;
72427;SDS011;60419;48.880;18.036;2022-10-16T16:33:36;17.45;;;10.23;;
72427;SDS011;60419;48.880;18.036;2022-10-16T16:36:21;14.52;;;9.68;;
72427;SDS011;60419;48.880;18.036;2022-10-16T16:39:07;18.25;;;9.70;;
72427;SDS011;60419;48.880;18.036;2022-10-16T16:41:54;14.98;;;9.20;;
72427;SDS011;60419;48.880;18.036;2022-10-16T16:44:40;12.80;;;8.68;;
72427;SDS011;60419;48.880;18.036;2022-10-16T16:47:26;14.82;;;8.60;;
72427;SDS011;60419;48.880;18.036;2022-10-16T16:50:11;12.65;;;8.10;;
72427;SDS011;60419;48.880;18.036;2022-10-16T16:52:56;12.60;;;8.73;;
72427;SDS011;60419;48.880;18.036;2022-10-16T16:55:42;13.07;;;9.10;;
72427;SDS011;60419;48.880;18.036;2022-10-16T16:58:27;15.00;;;10.00;;
72427;SDS011;60419;48.880;18.036;2022-10-16T17:01:13;16.05;;;10.18;;
72427;SDS011;60419;48.880;18.036;2022-10-16T17:03:58;13.05;;;8.85;;
72427;SDS011;60419;48.880;18.036;2022-10-16T17:06:44;14.48;;;10.30;;
72427;SDS011;60419;48.880;18.036;2022-10-16T17:09:31;16.35;;;11.05;;
72427;SDS011;60419;48.880;18.036;2022-10-16T17:12:17;15.38;;;10.27;;
72427;SDS011;60419;48.880;18.036;2022-10-16T17:15:03;16.02;;;10.13;;
72427;SDS011;60419;48.880;18.036;2022-10-16T17:17:49;16.73;;;9.70;;
72427;SDS011;60419;48.880;18.036;2022-10-16T17:20:35;17.15;;;9.65;;
72427;SDS011;60419;48.880;18.036;2022-10-16T17:23:20;16.13;;;10.05;;
72427;SDS011;60419;48.880;18.036;2022-10-16T17:26:07;15.85;;;9.07;;
72427;SDS011;60419;48.880;18.036;2022-10-16T17:28:56;19.15;;;9.10;;
72427;SDS011;60419;48.880;18.036;2022-10-16T17:31:43;16.10;;;8.30;;
72427;SDS011;60419;48.880;18.036;2022-10-16T17:34:29;12.98;;;7.70;;
72427;SDS011;60419;48.880;18.036;2022-10-16T17:37:15;11.88;;;7.68;;
72427;SDS011;60419;48.880;18.036;2022-10-16T17:40:00;12.00;;;7.80;;
72427;SDS011;60419;48.880;18.036;2022-10-16T17:42:45;13.13;;;8.05;;
72427;SDS011;60419;48.880;18.036;2022-10-16T17:45:35;11.05;;;7.13;;
72427;SDS011;60419;48.880;18.036;2022-10-16T17:48:21;11.68;;;7.85;;
72427;SDS011;60419;48.880;18.036;2022-10-16T17:51:09;16.73;;;7.53;;
72427;SDS011;60419;48.880;18.036;2022-10-16T17:53:57;11.32;;;7.40;;
72427;SDS011;60419;48.880;18.036;2022-10-16T17:56:44;11.32;;;7.25;;
72427;SDS011;60419;48.880;18.036;2022-10-16T17:59:29;11.50;;;6.93;;
72427;SDS011;60419;48.880;18.036;2022-10-16T18:02:14;12.38;;;8.07;;
72427;SDS011;60419;48.880;18.036;2022-10-16T18:05:02;15.02;;;8.00;;
72427;SDS011;60419;48.880;18.036;2022-10-16T18:07:50;13.60;;;8.57;;
72427;SDS011;60419;48.880;18.036;2022-10-16T18:10:35;13.63;;;7.97;;
72427;SDS011;60419;48.880;18.036;2022-10-16T18:13:20;13.18;;;8.02;;